createdAt,value
2019-04-03T00:01:35.976Z,1.05
2019-04-03T00:04:05.234Z,1.45
2019-04-03T00:06:35.321Z,0.85
2019-04-03T00:09:07.088Z,1.57
2019-04-03T00:11:39.372Z,1.15
2019-04-03T00:14:07.351Z,1.00
2019-04-03T00:16:36.932Z,0.88
2019-04-03T00:19:06.063Z,1.40
2019-04-03T00:21:35.183Z,0.95
2019-04-03T00:24:05.042Z,1.10
2019-04-03T00:26:34.839Z,0.88
2019-04-03T00:29:03.974Z,0.88
2019-04-03T00:31:33.866Z,1.05
2019-04-03T00:34:03.347Z,1.00
2019-04-03T00:36:32.876Z,0.95
2019-04-03T00:39:02.695Z,0.98
2019-04-03T00:41:32.500Z,0.95
2019-04-03T00:44:01.639Z,1.10
2019-04-03T00:46:31.383Z,1.02
2019-04-03T00:49:01.219Z,0.80
2019-04-03T00:51:30.699Z,1.57
2019-04-03T00:54:00.630Z,0.70
2019-04-03T00:56:29.747Z,0.70
2019-04-03T00:58:59.563Z,1.00
2019-04-03T01:01:29.016Z,1.00
2019-04-03T01:03:59.085Z,1.10
2019-04-03T01:06:28.989Z,0.90
2019-04-03T01:08:59.431Z,1.10
2019-04-03T01:11:30.654Z,0.70
2019-04-03T01:14:01.692Z,0.90
2019-04-03T01:16:32.991Z,1.42
2019-04-03T01:19:05.209Z,1.00
2019-04-03T01:21:33.239Z,1.45
2019-04-03T01:24:02.383Z,0.93
2019-04-03T01:26:31.541Z,1.10
2019-04-03T01:29:00.983Z,0.93
2019-04-03T01:31:30.117Z,1.05
2019-04-03T01:33:59.571Z,1.70
2019-04-03T01:36:29.324Z,1.27
2019-04-03T01:38:58.536Z,1.10
2019-04-03T01:41:28.196Z,1.00
2019-04-03T01:43:57.605Z,1.25
2019-04-03T01:46:27.582Z,0.82
2019-04-03T01:48:58.438Z,1.30
2019-04-03T01:51:29.707Z,1.17
2019-04-03T01:54:00.922Z,1.80
2019-04-03T01:56:30.292Z,1.62
2019-04-03T01:58:59.436Z,1.40
2019-04-03T02:01:29.308Z,1.70
2019-04-03T02:03:59.439Z,1.62
2019-04-03T02:06:29.121Z,1.00
2019-04-03T02:08:58.331Z,1.30
2019-04-03T02:11:28.299Z,1.70
2019-04-03T02:13:57.855Z,1.80
2019-04-03T02:16:27.003Z,1.20
2019-04-03T02:18:56.395Z,0.98
2019-04-03T02:21:27.696Z,2.30
2019-04-03T02:23:57.335Z,1.05
2019-04-03T02:26:27.221Z,1.12
2019-04-03T02:28:56.703Z,1.07
2019-04-03T02:31:25.875Z,1.20
2019-04-03T02:33:56.285Z,0.90
2019-04-03T02:36:25.453Z,2.15
2019-04-03T02:38:54.885Z,1.00
2019-04-03T02:41:24.589Z,1.70
2019-04-03T02:43:54.140Z,1.15
2019-04-03T02:46:26.916Z,1.17
2019-04-03T02:48:54.127Z,1.20
2019-04-03T02:51:23.785Z,3.65
2019-04-03T02:53:53.240Z,2.02
2019-04-03T02:56:22.832Z,1.07
2019-04-03T02:58:54.339Z,1.00
2019-04-03T03:01:23.969Z,1.10
2019-04-03T03:03:53.440Z,2.15
2019-04-03T03:06:23.233Z,1.02
2019-04-03T03:08:53.387Z,0.90
2019-04-03T03:11:24.718Z,1.37
2019-04-03T03:13:55.444Z,1.70
2019-04-03T03:16:27.113Z,1.30
2019-04-03T03:18:59.979Z,0.90
2019-04-03T03:21:28.551Z,1.50
2019-04-03T03:23:58.895Z,2.20
2019-04-03T03:26:29.044Z,0.60
2019-04-03T03:29:14.189Z,1.40
2019-04-03T03:31:58.755Z,1.25
2019-04-03T03:34:05.213Z,2.45
2019-04-03T03:36:34.775Z,1.17
2019-04-03T03:39:06.366Z,1.22
2019-04-03T03:41:35.603Z,1.57
2019-04-03T03:44:09.890Z,1.70
2019-04-03T03:46:37.486Z,1.72
2019-04-03T03:49:07.378Z,1.02
2019-04-03T03:51:37.007Z,1.30
2019-04-03T03:54:07.649Z,1.20
2019-04-03T03:56:37.208Z,2.22
2019-04-03T03:59:07.652Z,1.32
2019-04-03T04:01:37.241Z,0.78
2019-04-03T04:04:07.288Z,1.10
2019-04-03T04:06:36.839Z,1.40
2019-04-03T04:09:07.691Z,1.77
2019-04-03T04:11:37.802Z,1.07
2019-04-03T04:14:06.945Z,1.90
2019-04-03T04:16:37.616Z,1.50
2019-04-03T04:19:08.864Z,1.67
2019-04-03T04:21:42.653Z,1.22
2019-04-03T04:24:10.471Z,1.37
2019-04-03T04:26:40.919Z,1.85
2019-04-03T04:29:11.426Z,1.47
2019-04-03T04:31:43.342Z,1.25
2019-04-03T04:34:12.227Z,1.00
2019-04-03T04:36:42.108Z,1.80
2019-04-03T04:39:11.828Z,2.67
2019-04-03T04:41:41.888Z,1.45
2019-04-03T04:44:14.226Z,2.10
2019-04-03T04:46:44.530Z,1.52
2019-04-03T04:49:13.911Z,1.92
2019-04-03T04:51:43.725Z,1.25
2019-04-03T04:54:13.172Z,1.52
2019-04-03T04:56:42.328Z,2.47
2019-04-03T04:59:13.547Z,1.27
2019-04-03T05:01:43.161Z,1.45
2019-04-03T05:04:14.994Z,2.10
2019-04-03T05:06:43.870Z,1.20
2019-04-03T05:09:13.809Z,1.85
2019-04-03T05:11:42.943Z,0.95
2019-04-03T05:14:12.701Z,1.40
2019-04-03T05:16:42.095Z,1.62
2019-04-03T05:19:17.865Z,2.62
2019-04-03T05:21:42.636Z,1.82
2019-04-03T05:24:13.742Z,1.65
2019-04-03T05:26:43.144Z,3.35
2019-04-03T05:29:12.760Z,2.08
2019-04-03T05:31:42.001Z,1.17
2019-04-03T05:34:13.226Z,1.75
2019-04-03T05:36:42.899Z,1.62
2019-04-03T05:39:12.036Z,1.45
2019-04-03T05:41:42.178Z,1.60
2019-04-03T05:44:11.653Z,4.22
2019-04-03T05:46:41.000Z,2.17
2019-04-03T05:49:10.970Z,1.62
2019-04-03T05:51:40.596Z,1.50
2019-04-03T05:54:10.025Z,2.00
2019-04-03T05:56:42.487Z,2.77
2019-04-03T05:59:10.736Z,1.92
2019-04-03T06:01:42.600Z,1.77
2019-04-03T06:04:11.572Z,1.72
2019-04-03T06:06:41.018Z,1.70
2019-04-03T06:09:10.407Z,1.25
2019-04-03T06:11:40.542Z,1.70
2019-04-03T06:14:10.336Z,2.00
2019-04-03T06:16:40.573Z,1.45
2019-04-03T06:19:10.487Z,1.22
2019-04-03T06:21:39.704Z,2.00
2019-04-03T06:24:08.892Z,1.70
2019-04-03T06:26:38.620Z,1.82
2019-04-03T06:29:08.859Z,2.30
2019-04-03T06:31:38.578Z,1.70
2019-04-03T06:34:08.137Z,1.72
2019-04-03T06:36:37.771Z,1.98
2019-04-03T06:39:08.683Z,1.52
2019-04-03T06:41:38.285Z,2.47
2019-04-03T06:44:07.736Z,2.05
2019-04-03T06:46:36.849Z,2.62
2019-04-03T06:49:08.495Z,2.22
2019-04-03T06:51:37.462Z,1.70
2019-04-03T06:54:08.267Z,2.65
2019-04-03T06:56:40.003Z,2.02
2019-04-03T06:59:08.479Z,1.67
2019-04-03T07:01:38.228Z,1.30
2019-04-03T07:04:07.857Z,1.45
2019-04-03T07:06:37.727Z,1.90
2019-04-03T07:09:21.071Z,3.20
2019-04-03T07:11:39.429Z,1.95
2019-04-03T07:14:09.168Z,2.45
2019-04-03T07:16:39.044Z,2.30
2019-04-03T07:19:09.035Z,1.50
2019-04-03T07:21:38.987Z,1.75
2019-04-03T07:24:08.153Z,2.02
2019-04-03T07:26:37.371Z,4.65
2019-04-03T07:29:06.891Z,2.27
2019-04-03T07:31:36.316Z,2.10
2019-04-03T07:34:05.817Z,1.90
2019-04-03T07:36:35.660Z,4.12
2019-04-03T07:39:10.943Z,2.27
2019-04-03T07:41:41.056Z,2.05
2019-04-03T07:44:11.155Z,2.35
2019-04-03T07:46:40.644Z,2.55
2019-04-03T07:49:10.033Z,3.40
2019-04-03T07:51:39.971Z,1.30
2019-04-03T07:54:09.460Z,1.95
2019-04-03T07:56:39.092Z,2.12
2019-04-03T07:59:08.588Z,2.05
2019-04-03T08:01:38.782Z,1.65
2019-04-03T08:04:09.252Z,1.80
2019-04-03T08:06:38.443Z,2.15
2019-04-03T08:09:10.239Z,1.67
2019-04-03T08:11:39.996Z,2.10
2019-04-03T08:14:09.965Z,1.60
2019-04-03T08:16:42.067Z,1.67
2019-04-03T08:19:10.775Z,1.30
2019-04-03T08:21:40.200Z,1.87
2019-04-03T08:24:09.691Z,1.25
2019-04-03T08:26:39.829Z,2.33
2019-04-03T08:29:09.685Z,2.10
2019-04-03T08:31:42.595Z,2.37
2019-04-03T08:34:17.110Z,1.82
2019-04-03T08:36:42.861Z,1.07
2019-04-03T08:39:13.715Z,1.47
2019-04-03T08:41:44.184Z,1.05
2019-04-03T08:44:14.014Z,1.87
2019-04-03T08:46:44.029Z,0.60
2019-04-03T08:49:14.093Z,1.42
2019-04-03T08:51:43.368Z,1.40
2019-04-03T08:54:12.584Z,1.07
2019-04-03T08:56:41.715Z,1.30
2019-04-03T08:59:12.849Z,1.30
2019-04-03T09:01:42.034Z,1.60
2019-04-03T09:04:11.623Z,1.62
2019-04-03T09:06:41.203Z,1.55
2019-04-03T09:09:11.123Z,0.93
2019-04-03T09:11:40.623Z,0.90
2019-04-03T09:14:10.584Z,1.57
2019-04-03T09:16:40.109Z,1.05
2019-04-03T09:19:10.884Z,1.20
2019-04-03T09:21:41.029Z,1.20
2019-04-03T09:24:10.967Z,1.10
2019-04-03T09:26:40.471Z,1.45
2019-04-03T09:29:12.638Z,1.15
2019-04-03T09:31:41.179Z,1.85
2019-04-03T09:34:10.632Z,1.22
2019-04-03T09:36:40.766Z,1.15
2019-04-03T09:39:13.947Z,1.55
2019-04-03T09:41:43.295Z,1.40
2019-04-03T09:44:12.512Z,1.30
2019-04-03T09:46:44.564Z,1.30
2019-04-03T09:49:13.499Z,1.60
2019-04-03T09:51:42.951Z,1.60
2019-04-03T09:54:12.096Z,1.22
2019-04-03T09:56:56.496Z,0.95
2019-04-03T09:59:15.215Z,1.30
2019-04-03T10:01:44.069Z,1.67
2019-04-03T10:04:13.336Z,1.00
2019-04-03T10:06:42.792Z,0.93
2019-04-03T10:09:12.726Z,2.08
2019-04-03T10:11:42.317Z,1.40
2019-04-03T10:14:11.740Z,1.57
2019-04-03T10:16:41.252Z,2.27
2019-04-03T10:19:13.607Z,1.15
2019-04-03T10:21:42.529Z,2.00
2019-04-03T10:24:11.687Z,1.17
2019-04-03T10:26:40.989Z,1.82
2019-04-03T10:29:10.611Z,1.67
2019-04-03T10:31:39.731Z,1.10
2019-04-03T10:34:09.450Z,1.60
2019-04-03T10:36:40.136Z,1.17
2019-04-03T10:39:11.641Z,1.90
2019-04-03T10:41:41.693Z,1.70
2019-04-03T10:44:11.833Z,1.17
2019-04-03T10:46:41.554Z,1.30
2019-04-03T10:49:11.467Z,1.55
2019-04-03T10:51:41.618Z,1.25
2019-04-03T10:54:11.585Z,1.65
2019-04-03T10:56:40.881Z,1.72
2019-04-03T10:59:13.596Z,1.75
2019-04-03T11:01:42.146Z,0.78
2019-04-03T11:04:12.264Z,1.35
2019-04-03T11:06:41.782Z,2.00
2019-04-03T11:09:11.331Z,1.90
2019-04-03T11:11:42.958Z,1.47
2019-04-03T11:14:12.251Z,1.67
2019-04-03T11:16:41.704Z,1.82
2019-04-03T11:19:11.583Z,1.60
2019-04-03T11:21:43.345Z,2.20
2019-04-03T11:24:12.358Z,1.75
2019-04-03T11:26:42.904Z,1.85
2019-04-03T11:29:12.735Z,1.05
2019-04-03T11:31:43.140Z,1.40
2019-04-03T11:34:12.548Z,1.25
2019-04-03T11:36:42.112Z,1.40
2019-04-03T11:39:15.485Z,1.10
2019-04-03T11:41:42.696Z,2.08
2019-04-03T11:44:12.189Z,1.67
2019-04-03T11:46:41.672Z,2.10
2019-04-03T11:49:11.520Z,1.45
2019-04-03T11:51:40.705Z,1.75
2019-04-03T11:54:10.774Z,1.65
2019-04-03T11:56:40.531Z,1.20
2019-04-03T11:59:09.927Z,1.20
2019-04-03T12:01:39.873Z,1.27
2019-04-03T12:04:12.054Z,1.92
2019-04-03T12:06:41.076Z,1.80
2019-04-03T12:09:10.636Z,1.22
2019-04-03T12:11:40.132Z,1.50
2019-04-03T12:14:10.635Z,1.07
2019-04-03T12:16:40.290Z,2.60
2019-04-03T12:19:09.487Z,1.92
2019-04-03T12:21:39.080Z,1.25
2019-04-03T12:24:08.576Z,1.80
2019-04-03T12:26:37.787Z,1.00
2019-04-03T12:29:08.037Z,2.25
2019-04-03T12:31:37.909Z,1.60
2019-04-03T12:34:07.604Z,1.10
2019-04-03T12:36:37.252Z,3.85
2019-04-03T12:39:13.460Z,2.50
2019-04-03T12:41:43.606Z,1.65
2019-04-03T12:44:13.489Z,1.70
2019-04-03T12:46:42.645Z,3.02
2019-04-03T12:49:11.759Z,2.47
2019-04-03T12:51:41.194Z,2.25
2019-04-03T12:54:12.785Z,3.20
2019-04-03T12:56:41.500Z,2.50
2019-04-03T12:59:11.082Z,2.75
2019-04-03T13:01:40.330Z,2.75
2019-04-03T13:04:10.419Z,2.95
2019-04-03T13:06:41.860Z,2.58
2019-04-03T13:09:11.756Z,1.95
2019-04-03T13:11:41.937Z,2.40
2019-04-03T13:14:22.834Z,2.05
2019-04-03T13:16:42.647Z,2.00
2019-04-03T13:19:14.864Z,1.90
2019-04-03T13:21:43.810Z,2.35
2019-04-03T13:24:15.821Z,1.10
2019-04-03T13:26:44.199Z,2.10
2019-04-03T13:29:13.691Z,2.00
2019-04-03T13:31:44.460Z,2.25
2019-04-03T13:34:14.326Z,1.60
2019-04-03T13:36:44.201Z,2.30
2019-04-03T13:39:14.376Z,2.10
2019-04-03T13:41:43.894Z,1.90
2019-04-03T13:44:13.496Z,1.50
2019-04-03T13:46:43.202Z,2.40
2019-04-03T13:49:13.091Z,1.72
2019-04-03T13:51:42.631Z,2.65
2019-04-03T13:54:12.111Z,2.05
2019-04-03T13:56:43.172Z,2.62
2019-04-03T13:59:12.977Z,2.35
2019-04-03T14:01:42.190Z,1.85
2019-04-03T14:04:12.031Z,2.85
2019-04-03T14:06:41.512Z,1.87
2019-04-03T14:09:11.217Z,2.20
2019-04-03T14:11:40.453Z,1.72
2019-04-03T14:14:10.297Z,1.52
2019-04-03T14:16:39.772Z,1.80
2019-04-03T14:19:11.593Z,1.82
2019-04-03T14:21:40.755Z,1.40
2019-04-03T14:24:10.259Z,1.42
2019-04-03T14:26:39.407Z,1.65
2019-04-03T14:29:08.912Z,2.05
2019-04-03T14:31:38.316Z,1.95
2019-04-03T14:34:07.991Z,1.55
2019-04-03T14:36:38.103Z,2.95
2019-04-03T14:39:09.059Z,2.50
2019-04-03T14:41:39.019Z,2.60
2019-04-03T14:44:09.299Z,2.40
2019-04-03T14:46:40.229Z,2.75
2019-04-03T14:49:10.060Z,1.98
2019-04-03T14:51:39.776Z,1.50
2019-04-03T14:54:09.804Z,1.50
2019-04-03T14:56:40.079Z,2.02
2019-04-03T14:59:09.612Z,1.80
2019-04-03T15:01:38.844Z,1.37
2019-04-03T15:04:08.685Z,1.60
2019-04-03T15:06:38.316Z,1.10
2019-04-03T15:09:09.352Z,1.25
2019-04-03T15:11:39.226Z,0.93
2019-04-03T15:14:08.899Z,1.40
2019-04-03T15:16:38.555Z,1.27
2019-04-03T15:19:07.762Z,1.20
2019-04-03T15:21:37.601Z,1.32
2019-04-03T15:24:08.777Z,2.02
2019-04-03T15:26:38.478Z,2.08
2019-04-03T15:29:08.656Z,1.40
2019-04-03T15:31:38.016Z,1.35
2019-04-03T15:34:07.930Z,1.25
2019-04-03T15:36:37.205Z,1.07
2019-04-03T15:39:12.567Z,0.80
2019-04-03T15:41:42.730Z,0.90
2019-04-03T15:44:11.952Z,0.60
2019-04-03T15:46:41.636Z,0.60
2019-04-03T15:49:11.244Z,0.47
2019-04-03T15:51:41.138Z,0.70
2019-04-03T15:54:11.253Z,2.90
2019-04-03T15:56:42.647Z,0.53
2019-04-03T15:59:11.685Z,0.65
2019-04-03T16:01:41.332Z,0.57
2019-04-03T16:04:11.306Z,0.50
2019-04-03T16:06:41.364Z,0.60
2019-04-03T16:09:11.243Z,0.50
2019-04-03T16:11:41.613Z,1.27
2019-04-03T16:14:11.482Z,0.50
2019-04-03T16:16:40.716Z,0.45
2019-04-03T16:19:11.389Z,0.42
2019-04-03T16:21:40.722Z,0.80
2019-04-03T16:24:12.634Z,0.45
2019-04-03T16:26:41.504Z,0.40
2019-04-03T16:29:10.850Z,0.50
2019-04-03T16:31:40.783Z,0.60
2019-04-03T16:34:12.499Z,0.55
2019-04-03T16:36:41.280Z,0.90
2019-04-03T16:39:10.684Z,0.60
2019-04-03T16:41:41.015Z,0.50
2019-04-03T16:44:11.445Z,0.50
2019-04-03T16:46:41.681Z,0.90
2019-04-03T16:49:11.649Z,0.50
2019-04-03T16:51:41.276Z,0.57
2019-04-03T16:54:12.007Z,0.47
2019-04-03T16:56:41.743Z,0.37
2019-04-03T16:59:11.711Z,0.50
2019-04-03T17:01:41.004Z,0.60
2019-04-03T17:04:10.525Z,0.78
2019-04-03T17:06:39.714Z,0.50
2019-04-03T17:09:10.341Z,0.80
2019-04-03T17:11:43.526Z,0.50
2019-04-03T17:14:10.883Z,0.45
2019-04-03T17:16:40.036Z,0.40
2019-04-03T17:19:09.151Z,1.17
2019-04-03T17:21:39.620Z,0.90
2019-04-03T17:24:09.688Z,1.17
2019-04-03T17:26:48.956Z,0.30
2019-04-03T17:29:13.546Z,0.55
2019-04-03T17:31:41.308Z,1.15
2019-04-03T17:34:10.499Z,0.70
2019-04-03T17:36:40.125Z,0.55
2019-04-03T17:39:10.108Z,1.27
2019-04-03T17:41:39.671Z,0.60
2019-04-03T17:44:09.323Z,0.40
2019-04-03T17:46:40.064Z,0.40
2019-04-03T17:49:13.604Z,0.50
2019-04-03T17:51:43.475Z,0.30
2019-04-03T17:54:13.994Z,0.47
2019-04-03T17:56:43.687Z,0.70
2019-04-03T17:59:12.959Z,0.60
2019-04-03T18:01:42.418Z,0.55
2019-04-03T18:04:12.603Z,0.68
2019-04-03T18:06:42.692Z,0.93
2019-04-03T18:09:12.275Z,0.65
2019-04-03T18:11:42.878Z,1.12
2019-04-03T18:14:12.820Z,0.65
2019-04-03T18:16:42.670Z,0.50
2019-04-03T18:19:12.244Z,0.75
2019-04-03T18:21:41.460Z,0.53
2019-04-03T18:24:10.621Z,0.78
2019-04-03T18:26:40.413Z,1.00
2019-04-03T18:29:09.669Z,1.30
2019-04-03T18:31:39.524Z,1.00
2019-04-03T18:34:08.695Z,0.40
2019-04-03T18:36:38.535Z,1.00
2019-04-03T18:39:10.230Z,1.10
2019-04-03T18:41:39.448Z,1.25
2019-04-03T18:44:21.334Z,1.10
2019-04-03T18:46:40.267Z,1.15
2019-04-03T18:49:09.795Z,0.80
2019-04-03T18:51:39.036Z,0.90
2019-04-03T18:54:09.762Z,1.17
2019-04-03T18:56:39.552Z,0.60
2019-04-03T18:59:10.595Z,0.50
2019-04-03T19:01:40.055Z,0.70
2019-04-03T19:04:09.607Z,1.07
2019-04-03T19:06:39.523Z,0.70
2019-04-03T19:09:10.251Z,0.57
2019-04-03T19:11:40.979Z,0.65
2019-04-03T19:14:11.574Z,0.82
2019-04-03T19:16:46.382Z,0.80
2019-04-03T19:19:12.355Z,0.72
2019-04-03T19:21:41.655Z,0.50
2019-04-03T19:24:10.871Z,0.57
2019-04-03T19:26:40.344Z,0.60
2019-04-03T19:29:09.505Z,0.50
2019-04-03T19:31:40.174Z,0.40
2019-04-03T19:34:10.479Z,0.40
2019-04-03T19:36:42.918Z,1.32
2019-04-03T19:39:54.492Z,0.50
2019-04-03T19:42:23.989Z,0.40
2019-04-03T19:44:53.819Z,0.40
2019-04-03T19:47:24.634Z,0.62
2019-04-03T19:49:54.651Z,0.60
2019-04-03T19:52:24.419Z,0.40
2019-04-03T19:54:54.558Z,0.30
2019-04-03T19:57:24.949Z,1.57
2019-04-03T19:59:55.541Z,0.40
2019-04-03T20:02:24.760Z,0.40
2019-04-03T20:04:54.663Z,0.50
2019-04-03T20:07:26.643Z,0.50
2019-04-03T20:09:56.349Z,0.50
2019-04-03T20:12:25.953Z,0.40
2019-04-03T20:14:58.257Z,0.60
2019-04-03T20:17:26.768Z,0.88
2019-04-03T20:19:57.860Z,0.60
2019-04-03T20:22:27.059Z,0.40
2019-04-03T20:25:00.200Z,0.37
2019-04-03T20:27:28.329Z,0.62
2019-04-03T20:29:58.851Z,0.30
2019-04-03T20:32:29.947Z,0.40
2019-04-03T20:34:59.402Z,0.70
2019-04-03T20:37:28.861Z,0.60
2019-04-03T20:39:59.908Z,0.40
2019-04-03T20:42:29.521Z,0.70
2019-04-03T20:44:59.371Z,1.00
2019-04-03T20:47:28.831Z,0.45
2019-04-03T20:49:58.589Z,0.40
2019-04-03T20:52:28.100Z,0.30
2019-04-03T20:54:57.607Z,0.50
2019-04-03T20:57:26.810Z,0.60
2019-04-03T21:00:02.785Z,0.30
2019-04-03T21:02:27.960Z,0.45
2019-04-03T21:04:57.474Z,0.40
2019-04-03T21:07:26.984Z,0.60
2019-04-03T21:09:56.484Z,0.50
2019-04-03T21:12:25.687Z,0.40
2019-04-03T21:15:07.377Z,0.50
2019-04-03T21:17:25.786Z,0.40
2019-04-03T21:19:54.931Z,0.93
2019-04-03T21:22:24.067Z,0.40
2019-04-03T21:24:53.215Z,0.75
2019-04-03T21:27:22.684Z,0.40
2019-04-03T21:29:52.217Z,0.40
2019-04-03T21:32:21.689Z,0.65
2019-04-03T21:34:50.842Z,0.40
2019-04-03T21:37:19.967Z,0.93
2019-04-03T21:39:49.715Z,0.42
2019-04-03T21:42:19.519Z,0.30
2019-04-03T21:44:48.731Z,0.40
2019-04-03T21:47:17.862Z,0.40
2019-04-03T21:49:48.162Z,0.40
2019-04-03T21:52:17.747Z,0.50
2019-04-03T21:54:47.278Z,0.40
2019-04-03T21:57:16.407Z,0.40
2019-04-03T21:59:45.599Z,0.30
2019-04-03T22:02:16.247Z,0.40
2019-04-03T22:04:45.729Z,0.40
2019-04-03T22:07:14.910Z,0.40
2019-04-03T22:09:44.435Z,0.40
2019-04-03T22:12:13.686Z,0.80
2019-04-03T22:14:43.476Z,0.68
2019-04-03T22:17:13.148Z,0.37
2019-04-03T22:19:42.362Z,0.40
2019-04-03T22:22:12.167Z,0.40
2019-04-03T22:24:42.087Z,0.40
2019-04-03T22:27:12.125Z,0.30
2019-04-03T22:29:41.298Z,0.37
2019-04-03T22:32:11.099Z,0.50
2019-04-03T22:34:40.678Z,0.50
2019-04-03T22:37:11.293Z,0.40
2019-04-03T22:39:40.674Z,0.50
2019-04-03T22:42:09.884Z,0.45
2019-04-03T22:44:40.191Z,0.40
2019-04-03T22:47:09.935Z,0.40
2019-04-03T22:49:39.399Z,0.40
2019-04-03T22:52:09.415Z,0.30
2019-04-03T22:54:38.987Z,0.70
2019-04-03T22:57:08.524Z,0.40
2019-04-03T22:59:38.575Z,0.30
2019-04-03T23:02:08.067Z,0.30
2019-04-03T23:04:37.189Z,0.40
2019-04-03T23:07:07.073Z,0.37
2019-04-03T23:09:36.195Z,0.30
2019-04-03T23:12:05.678Z,0.30
2019-04-03T23:14:34.863Z,0.40
2019-04-03T23:17:04.007Z,0.40
2019-04-03T23:19:33.791Z,0.53
2019-04-03T23:22:03.358Z,0.65
2019-04-03T23:24:33.315Z,0.50
2019-04-03T23:27:03.156Z,0.72
2019-04-03T23:29:32.433Z,0.50
2019-04-03T23:32:02.093Z,0.47
2019-04-03T23:34:31.610Z,0.50
2019-04-03T23:37:01.453Z,0.82
2019-04-03T23:39:31.227Z,0.78
2019-04-03T23:42:00.668Z,0.55
2019-04-03T23:44:30.183Z,0.53
2019-04-03T23:46:59.668Z,0.80
2019-04-03T23:49:29.809Z,0.50
2019-04-03T23:51:59.732Z,0.60
2019-04-03T23:54:28.930Z,0.60
2019-04-03T23:56:58.719Z,0.90
2019-04-03T23:59:28.531Z,0.70
